sensor_id;sensor_type;location;lat;lon;timestamp;P1;durP1;ratioP1;P2;durP2;ratioP2
39566;SDS011;25241;41.978;14.664;2022-08-16T00:01:53;5.30;;;1.25;;
39566;SDS011;25241;41.978;14.664;2022-08-16T00:04:18;3.45;;;0.90;;
39566;SDS011;25241;41.978;14.664;2022-08-16T00:06:44;2.22;;;0.80;;
39566;SDS011;25241;41.978;14.664;2022-08-16T00:09:12;2.88;;;1.00;;
39566;SDS011;25241;41.978;14.664;2022-08-16T00:11:40;1.23;;;0.90;;
39566;SDS011;25241;41.978;14.664;2022-08-16T00:14:09;1.43;;;0.70;;
39566;SDS011;25241;41.978;14.664;2022-08-16T00:16:36;6.82;;;1.17;;
39566;SDS011;25241;41.978;14.664;2022-08-16T00:19:02;1.02;;;0.70;;
39566;SDS011;25241;41.978;14.664;2022-08-16T00:21:28;2.55;;;1.25;;
39566;SDS011;25241;41.978;14.664;2022-08-16T00:23:54;6.07;;;1.00;;
39566;SDS011;25241;41.978;14.664;2022-08-16T00:26:20;1.20;;;0.80;;
39566;SDS011;25241;41.978;14.664;2022-08-16T00:28:46;3.75;;;1.00;;
39566;SDS011;25241;41.978;14.664;2022-08-16T00:31:11;1.80;;;0.90;;
39566;SDS011;25241;41.978;14.664;2022-08-16T00:33:39;4.32;;;1.00;;
39566;SDS011;25241;41.978;14.664;2022-08-16T00:36:05;4.18;;;1.05;;
39566;SDS011;25241;41.978;14.664;2022-08-16T00:38:33;2.92;;;0.95;;
39566;SDS011;25241;41.978;14.664;2022-08-16T00:41:02;1.88;;;0.80;;
39566;SDS011;25241;41.978;14.664;2022-08-16T00:43:31;2.50;;;0.75;;
39566;SDS011;25241;41.978;14.664;2022-08-16T00:51:27;2.55;;;1.02;;
39566;SDS011;25241;41.978;14.664;2022-08-16T00:53:55;1.90;;;0.68;;
39566;SDS011;25241;41.978;14.664;2022-08-16T00:56:24;2.58;;;0.90;;
39566;SDS011;25241;41.978;14.664;2022-08-16T00:58:55;4.18;;;0.85;;
39566;SDS011;25241;41.978;14.664;2022-08-16T01:01:23;0.80;;;0.50;;
39566;SDS011;25241;41.978;14.664;2022-08-16T01:03:50;6.40;;;1.13;;
39566;SDS011;25241;41.978;14.664;2022-08-16T01:06:20;1.00;;;0.68;;
39566;SDS011;25241;41.978;14.664;2022-08-16T01:08:48;1.27;;;0.43;;
39566;SDS011;25241;41.978;14.664;2022-08-16T01:11:17;1.20;;;0.55;;
39566;SDS011;25241;41.978;14.664;2022-08-16T01:13:43;2.30;;;0.88;;
39566;SDS011;25241;41.978;14.664;2022-08-16T01:16:18;1.48;;;0.50;;
39566;SDS011;25241;41.978;14.664;2022-08-16T01:24:32;0.47;;;0.47;;
39566;SDS011;25241;41.978;14.664;2022-08-16T01:27:04;0.97;;;0.83;;
39566;SDS011;25241;41.978;14.664;2022-08-16T01:29:36;5.03;;;0.40;;
39566;SDS011;25241;41.978;14.664;2022-08-16T01:32:04;8.43;;;0.98;;
39566;SDS011;25241;41.978;14.664;2022-08-16T01:34:32;1.42;;;0.65;;
39566;SDS011;25241;41.978;14.664;2022-08-16T01:36:59;1.00;;;0.82;;
39566;SDS011;25241;41.978;14.664;2022-08-16T01:41:53;1.42;;;0.75;;
39566;SDS011;25241;41.978;14.664;2022-08-16T01:44:18;1.13;;;0.75;;
39566;SDS011;25241;41.978;14.664;2022-08-16T01:46:46;3.15;;;0.75;;
39566;SDS011;25241;41.978;14.664;2022-08-16T01:49:14;2.55;;;0.50;;
39566;SDS011;25241;41.978;14.664;2022-08-16T01:51:41;1.58;;;0.80;;
39566;SDS011;25241;41.978;14.664;2022-08-16T01:54:07;5.65;;;0.73;;
39566;SDS011;25241;41.978;14.664;2022-08-16T01:56:35;1.65;;;0.60;;
39566;SDS011;25241;41.978;14.664;2022-08-16T01:59:03;6.87;;;0.83;;
39566;SDS011;25241;41.978;14.664;2022-08-16T02:01:33;3.45;;;1.00;;
39566;SDS011;25241;41.978;14.664;2022-08-16T02:04:01;2.05;;;0.80;;
39566;SDS011;25241;41.978;14.664;2022-08-16T02:06:27;1.50;;;0.75;;
39566;SDS011;25241;41.978;14.664;2022-08-16T02:08:55;4.00;;;0.90;;
39566;SDS011;25241;41.978;14.664;2022-08-16T02:30:49;1.75;;;0.80;;
39566;SDS011;25241;41.978;14.664;2022-08-16T02:33:15;3.20;;;0.70;;
39566;SDS011;25241;41.978;14.664;2022-08-16T06:06:57;1.10;;;0.30;;
39566;SDS011;25241;41.978;14.664;2022-08-16T06:09:23;3.75;;;0.57;;
39566;SDS011;25241;41.978;14.664;2022-08-16T06:11:52;4.97;;;0.50;;
39566;SDS011;25241;41.978;14.664;2022-08-16T08:06:03;5.05;;;0.55;;
39566;SDS011;25241;41.978;14.664;2022-08-16T08:08:29;1.67;;;0.60;;
39566;SDS011;25241;41.978;14.664;2022-08-16T08:10:54;2.92;;;0.65;;
39566;SDS011;25241;41.978;14.664;2022-08-16T08:13:20;5.22;;;0.80;;
39566;SDS011;25241;41.978;14.664;2022-08-16T08:15:46;7.53;;;1.00;;
39566;SDS011;25241;41.978;14.664;2022-08-16T08:18:14;2.17;;;0.63;;
39566;SDS011;25241;41.978;14.664;2022-08-16T08:20:40;3.97;;;0.88;;
39566;SDS011;25241;41.978;14.664;2022-08-16T08:23:10;2.47;;;0.65;;
39566;SDS011;25241;41.978;14.664;2022-08-16T08:25:38;1.48;;;0.88;;
39566;SDS011;25241;41.978;14.664;2022-08-16T08:28:05;1.77;;;0.77;;
39566;SDS011;25241;41.978;14.664;2022-08-16T08:30:31;1.60;;;0.90;;
39566;SDS011;25241;41.978;14.664;2022-08-16T08:32:57;1.40;;;0.63;;
39566;SDS011;25241;41.978;14.664;2022-08-16T08:35:22;3.05;;;0.90;;
39566;SDS011;25241;41.978;14.664;2022-08-16T08:37:48;3.13;;;0.60;;
39566;SDS011;25241;41.978;14.664;2022-08-16T08:40:14;2.85;;;1.10;;
39566;SDS011;25241;41.978;14.664;2022-08-16T08:42:40;1.63;;;0.85;;
39566;SDS011;25241;41.978;14.664;2022-08-16T08:45:08;2.30;;;0.90;;
39566;SDS011;25241;41.978;14.664;2022-08-16T08:47:35;3.85;;;1.08;;
39566;SDS011;25241;41.978;14.664;2022-08-16T08:50:01;2.05;;;0.77;;
39566;SDS011;25241;41.978;14.664;2022-08-16T08:52:28;6.90;;;1.00;;
39566;SDS011;25241;41.978;14.664;2022-08-16T08:54:53;1.73;;;0.77;;
39566;SDS011;25241;41.978;14.664;2022-08-16T08:57:21;1.58;;;1.00;;
39566;SDS011;25241;41.978;14.664;2022-08-16T08:59:49;0.93;;;0.80;;
39566;SDS011;25241;41.978;14.664;2022-08-16T09:02:16;2.07;;;0.90;;
39566;SDS011;25241;41.978;14.664;2022-08-16T09:04:42;2.22;;;0.82;;
39566;SDS011;25241;41.978;14.664;2022-08-16T09:07:09;2.28;;;1.00;;
39566;SDS011;25241;41.978;14.664;2022-08-16T09:09:37;2.80;;;0.85;;
39566;SDS011;25241;41.978;14.664;2022-08-16T09:12:03;3.50;;;1.13;;
39566;SDS011;25241;41.978;14.664;2022-08-16T09:14:31;1.05;;;0.80;;
39566;SDS011;25241;41.978;14.664;2022-08-16T09:17:00;6.43;;;1.02;;
39566;SDS011;25241;41.978;14.664;2022-08-16T09:19:26;1.33;;;1.00;;
39566;SDS011;25241;41.978;14.664;2022-08-16T09:21:52;4.10;;;1.08;;
39566;SDS011;25241;41.978;14.664;2022-08-16T09:24:21;3.08;;;0.90;;
39566;SDS011;25241;41.978;14.664;2022-08-16T09:26:46;2.38;;;1.05;;
39566;SDS011;25241;41.978;14.664;2022-08-16T09:29:14;1.60;;;1.08;;
39566;SDS011;25241;41.978;14.664;2022-08-16T09:31:40;2.17;;;0.80;;
39566;SDS011;25241;41.978;14.664;2022-08-16T09:34:06;1.60;;;1.45;;
39566;SDS011;25241;41.978;14.664;2022-08-16T09:36:32;2.95;;;1.30;;
39566;SDS011;25241;41.978;14.664;2022-08-16T09:38:58;3.05;;;0.82;;
39566;SDS011;25241;41.978;14.664;2022-08-16T09:41:24;2.83;;;0.80;;
39566;SDS011;25241;41.978;14.664;2022-08-16T09:43:49;1.77;;;0.90;;
39566;SDS011;25241;41.978;14.664;2022-08-16T09:46:15;2.00;;;1.02;;
39566;SDS011;25241;41.978;14.664;2022-08-16T09:48:41;0.65;;;0.55;;
39566;SDS011;25241;41.978;14.664;2022-08-16T21:31:00;4.47;;;2.28;;
39566;SDS011;25241;41.978;14.664;2022-08-16T21:33:26;5.00;;;1.75;;
39566;SDS011;25241;41.978;14.664;2022-08-16T21:35:52;3.83;;;2.00;;
39566;SDS011;25241;41.978;14.664;2022-08-16T21:38:18;5.05;;;1.83;;
39566;SDS011;25241;41.978;14.664;2022-08-16T21:40:44;3.72;;;1.85;;
39566;SDS011;25241;41.978;14.664;2022-08-16T21:43:14;11.63;;;2.53;;
39566;SDS011;25241;41.978;14.664;2022-08-16T21:45:42;3.78;;;1.33;;
39566;SDS011;25241;41.978;14.664;2022-08-16T21:48:08;4.80;;;1.80;;
39566;SDS011;25241;41.978;14.664;2022-08-16T21:50:36;4.95;;;2.50;;
39566;SDS011;25241;41.978;14.664;2022-08-16T21:53:04;3.23;;;1.43;;
39566;SDS011;25241;41.978;14.664;2022-08-16T21:55:40;4.85;;;1.58;;
39566;SDS011;25241;41.978;14.664;2022-08-16T21:58:07;5.38;;;1.40;;
39566;SDS011;25241;41.978;14.664;2022-08-16T22:00:35;6.43;;;1.77;;
39566;SDS011;25241;41.978;14.664;2022-08-16T22:03:02;3.78;;;1.67;;
39566;SDS011;25241;41.978;14.664;2022-08-16T22:05:29;4.55;;;1.88;;
39566;SDS011;25241;41.978;14.664;2022-08-16T22:07:55;7.07;;;2.30;;
39566;SDS011;25241;41.978;14.664;2022-08-16T22:10:21;2.60;;;1.50;;
39566;SDS011;25241;41.978;14.664;2022-08-16T22:12:50;9.80;;;1.98;;
39566;SDS011;25241;41.978;14.664;2022-08-16T22:15:19;3.92;;;1.95;;
39566;SDS011;25241;41.978;14.664;2022-08-16T22:17:57;4.32;;;1.90;;
39566;SDS011;25241;41.978;14.664;2022-08-16T22:20:24;4.40;;;2.15;;
39566;SDS011;25241;41.978;14.664;2022-08-16T22:23:14;4.90;;;1.50;;
39566;SDS011;25241;41.978;14.664;2022-08-16T22:25:43;7.32;;;1.83;;
39566;SDS011;25241;41.978;14.664;2022-08-16T22:28:12;4.32;;;1.50;;
39566;SDS011;25241;41.978;14.664;2022-08-16T22:30:40;9.02;;;2.25;;
39566;SDS011;25241;41.978;14.664;2022-08-16T22:33:12;6.38;;;1.52;;
39566;SDS011;25241;41.978;14.664;2022-08-16T22:35:40;8.02;;;1.88;;
39566;SDS011;25241;41.978;14.664;2022-08-16T22:38:12;10.05;;;2.13;;
39566;SDS011;25241;41.978;14.664;2022-08-16T22:40:38;3.75;;;1.70;;
39566;SDS011;25241;41.978;14.664;2022-08-16T22:43:04;5.65;;;2.47;;
39566;SDS011;25241;41.978;14.664;2022-08-16T22:45:33;7.15;;;1.55;;
39566;SDS011;25241;41.978;14.664;2022-08-16T22:48:00;5.90;;;1.83;;
39566;SDS011;25241;41.978;14.664;2022-08-16T22:50:27;5.15;;;1.83;;
39566;SDS011;25241;41.978;14.664;2022-08-16T22:52:53;6.03;;;2.28;;
39566;SDS011;25241;41.978;14.664;2022-08-16T22:55:19;5.55;;;1.75;;
39566;SDS011;25241;41.978;14.664;2022-08-16T22:57:45;3.90;;;1.50;;
39566;SDS011;25241;41.978;14.664;2022-08-16T23:00:13;10.73;;;1.75;;
39566;SDS011;25241;41.978;14.664;2022-08-16T23:05:32;8.32;;;1.60;;
39566;SDS011;25241;41.978;14.664;2022-08-16T23:08:01;6.03;;;1.40;;
39566;SDS011;25241;41.978;14.664;2022-08-16T23:10:27;7.40;;;2.20;;
39566;SDS011;25241;41.978;14.664;2022-08-16T23:12:57;3.92;;;1.50;;
39566;SDS011;25241;41.978;14.664;2022-08-16T23:15:24;6.95;;;1.75;;
39566;SDS011;25241;41.978;14.664;2022-08-16T23:17:51;6.78;;;1.98;;
39566;SDS011;25241;41.978;14.664;2022-08-16T23:20:20;4.75;;;1.92;;
39566;SDS011;25241;41.978;14.664;2022-08-16T23:22:51;8.88;;;2.08;;
39566;SDS011;25241;41.978;14.664;2022-08-16T23:25:22;6.13;;;1.67;;
39566;SDS011;25241;41.978;14.664;2022-08-16T23:27:49;5.57;;;2.05;;
39566;SDS011;25241;41.978;14.664;2022-08-16T23:30:18;5.38;;;1.55;;
39566;SDS011;25241;41.978;14.664;2022-08-16T23:33:04;7.57;;;2.00;;
39566;SDS011;25241;41.978;14.664;2022-08-16T23:35:38;2.42;;;1.45;;
39566;SDS011;25241;41.978;14.664;2022-08-16T23:38:08;8.23;;;1.67;;
39566;SDS011;25241;41.978;14.664;2022-08-16T23:40:34;5.05;;;1.70;;
39566;SDS011;25241;41.978;14.664;2022-08-16T23:45:28;2.33;;;1.63;;
39566;SDS011;25241;41.978;14.664;2022-08-16T23:48:00;4.60;;;1.58;;
39566;SDS011;25241;41.978;14.664;2022-08-16T23:50:26;7.55;;;1.55;;
39566;SDS011;25241;41.978;14.664;2022-08-16T23:52:58;6.85;;;1.45;;
39566;SDS011;25241;41.978;14.664;2022-08-16T23:55:28;6.78;;;1.73;;
39566;SDS011;25241;41.978;14.664;2022-08-16T23:57:56;8.43;;;1.83;;
